sensor_id;sensor_type;location;lat;lon;timestamp;P1;durP1;ratioP1;P2;durP2;ratioP2
41875;SDS011;27555;50.808;4.402;2022-09-24T00:01:49;13.63;;;9.40;;
41875;SDS011;27555;50.808;4.402;2022-09-24T00:04:15;14.20;;;9.73;;
41875;SDS011;27555;50.808;4.402;2022-09-24T00:06:43;14.40;;;9.07;;
41875;SDS011;27555;50.808;4.402;2022-09-24T00:09:11;12.88;;;8.25;;
41875;SDS011;27555;50.808;4.402;2022-09-24T00:11:41;14.20;;;8.38;;
41875;SDS011;27555;50.808;4.402;2022-09-24T00:14:10;13.73;;;9.00;;
41875;SDS011;27555;50.808;4.402;2022-09-24T00:16:36;12.68;;;8.50;;
41875;SDS011;27555;50.808;4.402;2022-09-24T00:19:04;12.38;;;8.73;;
41875;SDS011;27555;50.808;4.402;2022-09-24T00:21:30;14.63;;;8.90;;
41875;SDS011;27555;50.808;4.402;2022-09-24T00:24:02;14.70;;;9.52;;
41875;SDS011;27555;50.808;4.402;2022-09-24T00:26:29;13.75;;;8.40;;
41875;SDS011;27555;50.808;4.402;2022-09-24T00:29:15;14.10;;;9.68;;
41875;SDS011;27555;50.808;4.402;2022-09-24T00:31:45;15.38;;;9.38;;
41875;SDS011;27555;50.808;4.402;2022-09-24T00:34:12;13.82;;;9.02;;
41875;SDS011;27555;50.808;4.402;2022-09-24T00:36:37;11.98;;;8.50;;
41875;SDS011;27555;50.808;4.402;2022-09-24T00:39:03;17.35;;;9.57;;
41875;SDS011;27555;50.808;4.402;2022-09-24T00:41:33;15.35;;;9.77;;
41875;SDS011;27555;50.808;4.402;2022-09-24T00:44:00;14.18;;;9.20;;
41875;SDS011;27555;50.808;4.402;2022-09-24T00:46:46;14.70;;;9.45;;
41875;SDS011;27555;50.808;4.402;2022-09-24T00:49:13;14.00;;;8.85;;
41875;SDS011;27555;50.808;4.402;2022-09-24T00:51:42;15.02;;;10.13;;
41875;SDS011;27555;50.808;4.402;2022-09-24T00:54:15;14.52;;;10.57;;
41875;SDS011;27555;50.808;4.402;2022-09-24T00:56:48;14.70;;;10.40;;
41875;SDS011;27555;50.808;4.402;2022-09-24T00:59:17;14.55;;;10.85;;
41875;SDS011;27555;50.808;4.402;2022-09-24T01:01:45;16.17;;;11.25;;
41875;SDS011;27555;50.808;4.402;2022-09-24T01:04:12;19.80;;;12.48;;
41875;SDS011;27555;50.808;4.402;2022-09-24T01:06:39;27.95;;;13.90;;
41875;SDS011;27555;50.808;4.402;2022-09-24T01:09:05;17.23;;;11.85;;
41875;SDS011;27555;50.808;4.402;2022-09-24T01:30:43;20.25;;;13.88;;
41875;SDS011;27555;50.808;4.402;2022-09-24T01:33:12;28.17;;;13.90;;
41875;SDS011;27555;50.808;4.402;2022-09-24T01:35:54;22.27;;;13.98;;
41875;SDS011;27555;50.808;4.402;2022-09-24T01:38:25;19.25;;;13.65;;
41875;SDS011;27555;50.808;4.402;2022-09-24T01:40:57;20.58;;;13.25;;
41875;SDS011;27555;50.808;4.402;2022-09-24T01:43:27;19.60;;;13.07;;
41875;SDS011;27555;50.808;4.402;2022-09-24T01:45:54;18.52;;;13.32;;
41875;SDS011;27555;50.808;4.402;2022-09-24T01:48:23;18.90;;;13.48;;
41875;SDS011;27555;50.808;4.402;2022-09-24T01:51:09;21.10;;;13.60;;
41875;SDS011;27555;50.808;4.402;2022-09-24T01:53:48;23.50;;;14.50;;
41875;SDS011;27555;50.808;4.402;2022-09-24T01:56:25;20.42;;;13.77;;
41875;SDS011;27555;50.808;4.402;2022-09-24T01:59:00;21.52;;;14.27;;
41875;SDS011;27555;50.808;4.402;2022-09-24T02:01:31;21.13;;;13.65;;
41875;SDS011;27555;50.808;4.402;2022-09-24T02:04:05;25.65;;;14.25;;
41875;SDS011;27555;50.808;4.402;2022-09-24T02:06:41;20.33;;;13.75;;
41875;SDS011;27555;50.808;4.402;2022-09-24T02:14:49;22.88;;;13.63;;
41875;SDS011;27555;50.808;4.402;2022-09-24T02:17:19;20.23;;;13.43;;
41875;SDS011;27555;50.808;4.402;2022-09-24T02:19:48;20.17;;;13.15;;
41875;SDS011;27555;50.808;4.402;2022-09-24T02:22:14;23.60;;;13.98;;
41875;SDS011;27555;50.808;4.402;2022-09-24T02:24:49;23.45;;;12.82;;
41875;SDS011;27555;50.808;4.402;2022-09-24T02:27:17;21.70;;;12.07;;
41875;SDS011;27555;50.808;4.402;2022-09-24T02:29:44;21.52;;;12.70;;
41875;SDS011;27555;50.808;4.402;2022-09-24T02:32:12;18.08;;;12.00;;
41875;SDS011;27555;50.808;4.402;2022-09-24T02:34:46;16.63;;;11.35;;
41875;SDS011;27555;50.808;4.402;2022-09-24T02:37:17;21.05;;;12.82;;
41875;SDS011;27555;50.808;4.402;2022-09-24T02:39:46;17.58;;;11.45;;
41875;SDS011;27555;50.808;4.402;2022-09-24T02:42:12;18.63;;;12.93;;
41875;SDS011;27555;50.808;4.402;2022-09-24T02:44:39;20.50;;;12.88;;
41875;SDS011;27555;50.808;4.402;2022-09-24T02:47:05;21.38;;;13.57;;
41875;SDS011;27555;50.808;4.402;2022-09-24T02:49:31;19.83;;;12.90;;
41875;SDS011;27555;50.808;4.402;2022-09-24T02:51:57;17.92;;;12.48;;
41875;SDS011;27555;50.808;4.402;2022-09-24T02:54:23;19.30;;;12.65;;
41875;SDS011;27555;50.808;4.402;2022-09-24T02:56:49;20.23;;;13.73;;
41875;SDS011;27555;50.808;4.402;2022-09-24T02:59:15;20.58;;;14.18;;
41875;SDS011;27555;50.808;4.402;2022-09-24T03:01:41;20.48;;;13.73;;
41875;SDS011;27555;50.808;4.402;2022-09-24T03:04:07;20.83;;;13.27;;
41875;SDS011;27555;50.808;4.402;2022-09-24T03:06:33;18.30;;;13.07;;
41875;SDS011;27555;50.808;4.402;2022-09-24T03:08:58;22.20;;;13.93;;
41875;SDS011;27555;50.808;4.402;2022-09-24T03:11:26;22.85;;;14.30;;
41875;SDS011;27555;50.808;4.402;2022-09-24T03:13:52;21.30;;;14.13;;
41875;SDS011;27555;50.808;4.402;2022-09-24T03:16:18;20.08;;;13.07;;
41875;SDS011;27555;50.808;4.402;2022-09-24T03:18:45;21.17;;;15.02;;
41875;SDS011;27555;50.808;4.402;2022-09-24T03:21:12;18.45;;;13.32;;
41875;SDS011;27555;50.808;4.402;2022-09-24T03:23:42;18.67;;;13.20;;
41875;SDS011;27555;50.808;4.402;2022-09-24T03:26:07;23.70;;;14.07;;
41875;SDS011;27555;50.808;4.402;2022-09-24T03:28:33;24.63;;;14.40;;
41875;SDS011;27555;50.808;4.402;2022-09-24T03:31:01;20.83;;;13.95;;
41875;SDS011;27555;50.808;4.402;2022-09-24T03:35:58;20.35;;;13.32;;
41875;SDS011;27555;50.808;4.402;2022-09-24T03:38:36;25.17;;;13.93;;
41875;SDS011;27555;50.808;4.402;2022-09-24T03:41:03;21.35;;;13.57;;
41875;SDS011;27555;50.808;4.402;2022-09-24T03:43:30;25.60;;;14.75;;
41875;SDS011;27555;50.808;4.402;2022-09-24T03:45:56;22.42;;;15.18;;
41875;SDS011;27555;50.808;4.402;2022-09-24T03:48:22;19.77;;;13.52;;
41875;SDS011;27555;50.808;4.402;2022-09-24T03:50:49;22.17;;;14.40;;
41875;SDS011;27555;50.808;4.402;2022-09-24T03:53:16;17.90;;;12.70;;
41875;SDS011;27555;50.808;4.402;2022-09-24T03:55:43;20.58;;;15.02;;
41875;SDS011;27555;50.808;4.402;2022-09-24T03:58:16;20.00;;;14.55;;
41875;SDS011;27555;50.808;4.402;2022-09-24T04:00:42;21.15;;;13.98;;
41875;SDS011;27555;50.808;4.402;2022-09-24T04:03:08;22.27;;;14.10;;
41875;SDS011;27555;50.808;4.402;2022-09-24T04:05:34;17.85;;;12.77;;
41875;SDS011;27555;50.808;4.402;2022-09-24T04:08:00;21.02;;;13.75;;
41875;SDS011;27555;50.808;4.402;2022-09-24T04:10:26;20.00;;;13.65;;
41875;SDS011;27555;50.808;4.402;2022-09-24T04:12:53;22.90;;;15.15;;
41875;SDS011;27555;50.808;4.402;2022-09-24T04:15:19;23.42;;;15.05;;
41875;SDS011;27555;50.808;4.402;2022-09-24T04:17:49;25.25;;;14.90;;
41875;SDS011;27555;50.808;4.402;2022-09-24T04:20:16;22.95;;;15.52;;
41875;SDS011;27555;50.808;4.402;2022-09-24T04:22:45;25.67;;;15.50;;
41875;SDS011;27555;50.808;4.402;2022-09-24T04:25:11;22.73;;;15.00;;
41875;SDS011;27555;50.808;4.402;2022-09-24T04:27:37;22.85;;;14.80;;
41875;SDS011;27555;50.808;4.402;2022-09-24T04:30:03;24.38;;;15.02;;
41875;SDS011;27555;50.808;4.402;2022-09-24T04:32:29;24.13;;;16.13;;
41875;SDS011;27555;50.808;4.402;2022-09-24T04:34:55;22.15;;;15.25;;
41875;SDS011;27555;50.808;4.402;2022-09-24T04:37:22;23.20;;;15.68;;
41875;SDS011;27555;50.808;4.402;2022-09-24T04:39:48;23.17;;;16.08;;
41875;SDS011;27555;50.808;4.402;2022-09-24T04:42:15;23.63;;;15.27;;
41875;SDS011;27555;50.808;4.402;2022-09-24T04:44:41;25.48;;;16.00;;
41875;SDS011;27555;50.808;4.402;2022-09-24T04:47:11;23.88;;;15.05;;
41875;SDS011;27555;50.808;4.402;2022-09-24T04:49:38;24.17;;;16.38;;
41875;SDS011;27555;50.808;4.402;2022-09-24T04:52:04;29.95;;;15.93;;
41875;SDS011;27555;50.808;4.402;2022-09-24T04:54:29;26.38;;;15.02;;
41875;SDS011;27555;50.808;4.402;2022-09-24T04:56:55;23.77;;;16.17;;
41875;SDS011;27555;50.808;4.402;2022-09-24T04:59:22;25.90;;;15.95;;
41875;SDS011;27555;50.808;4.402;2022-09-24T05:01:48;23.60;;;16.52;;
41875;SDS011;27555;50.808;4.402;2022-09-24T05:04:13;26.95;;;16.20;;
41875;SDS011;27555;50.808;4.402;2022-09-24T05:06:39;25.70;;;16.02;;
41875;SDS011;27555;50.808;4.402;2022-09-24T05:09:05;26.90;;;16.92;;
41875;SDS011;27555;50.808;4.402;2022-09-24T05:11:31;26.55;;;16.00;;
41875;SDS011;27555;50.808;4.402;2022-09-24T05:13:57;24.45;;;15.57;;
41875;SDS011;27555;50.808;4.402;2022-09-24T05:16:22;24.77;;;15.25;;
41875;SDS011;27555;50.808;4.402;2022-09-24T05:18:49;23.85;;;16.00;;
41875;SDS011;27555;50.808;4.402;2022-09-24T05:21:14;24.80;;;15.82;;
41875;SDS011;27555;50.808;4.402;2022-09-24T05:23:41;27.98;;;17.20;;
41875;SDS011;27555;50.808;4.402;2022-09-24T05:26:06;26.88;;;15.20;;
41875;SDS011;27555;50.808;4.402;2022-09-24T05:28:51;25.70;;;16.92;;
41875;SDS011;27555;50.808;4.402;2022-09-24T05:31:17;23.00;;;14.73;;
41875;SDS011;27555;50.808;4.402;2022-09-24T05:33:42;24.17;;;14.57;;
41875;SDS011;27555;50.808;4.402;2022-09-24T05:36:08;23.73;;;15.88;;
41875;SDS011;27555;50.808;4.402;2022-09-24T05:38:33;29.55;;;16.15;;
41875;SDS011;27555;50.808;4.402;2022-09-24T05:40:59;26.92;;;16.38;;
41875;SDS011;27555;50.808;4.402;2022-09-24T05:43:25;27.58;;;15.80;;
41875;SDS011;27555;50.808;4.402;2022-09-24T05:45:52;26.80;;;16.70;;
41875;SDS011;27555;50.808;4.402;2022-09-24T05:48:18;23.35;;;15.82;;
41875;SDS011;27555;50.808;4.402;2022-09-24T05:50:45;25.50;;;15.38;;
41875;SDS011;27555;50.808;4.402;2022-09-24T05:53:11;27.50;;;16.13;;
41875;SDS011;27555;50.808;4.402;2022-09-24T05:55:37;28.23;;;16.15;;
41875;SDS011;27555;50.808;4.402;2022-09-24T05:58:04;28.88;;;16.15;;
41875;SDS011;27555;50.808;4.402;2022-09-24T06:00:31;33.65;;;17.60;;
41875;SDS011;27555;50.808;4.402;2022-09-24T06:03:01;26.05;;;15.57;;
41875;SDS011;27555;50.808;4.402;2022-09-24T06:05:32;23.88;;;15.45;;
41875;SDS011;27555;50.808;4.402;2022-09-24T06:08:02;29.38;;;16.60;;
41875;SDS011;27555;50.808;4.402;2022-09-24T06:10:28;26.85;;;16.15;;
41875;SDS011;27555;50.808;4.402;2022-09-24T06:12:54;30.52;;;17.35;;
41875;SDS011;27555;50.808;4.402;2022-09-24T06:15:20;29.23;;;16.05;;
41875;SDS011;27555;50.808;4.402;2022-09-24T06:17:46;25.50;;;17.27;;
41875;SDS011;27555;50.808;4.402;2022-09-24T06:20:12;29.38;;;15.88;;
41875;SDS011;27555;50.808;4.402;2022-09-24T06:22:38;25.10;;;16.00;;
41875;SDS011;27555;50.808;4.402;2022-09-24T06:25:04;27.05;;;16.45;;
41875;SDS011;27555;50.808;4.402;2022-09-24T06:27:31;25.05;;;15.80;;
41875;SDS011;27555;50.808;4.402;2022-09-24T06:29:56;26.95;;;15.52;;
41875;SDS011;27555;50.808;4.402;2022-09-24T06:32:22;25.77;;;15.48;;
41875;SDS011;27555;50.808;4.402;2022-09-24T06:34:48;25.95;;;15.30;;
41875;SDS011;27555;50.808;4.402;2022-09-24T06:37:14;25.05;;;16.20;;
41875;SDS011;27555;50.808;4.402;2022-09-24T06:39:40;25.15;;;15.07;;
41875;SDS011;27555;50.808;4.402;2022-09-24T06:42:06;23.23;;;14.38;;
41875;SDS011;27555;50.808;4.402;2022-09-24T06:44:32;26.95;;;15.13;;
41875;SDS011;27555;50.808;4.402;2022-09-24T06:46:58;23.88;;;14.13;;
41875;SDS011;27555;50.808;4.402;2022-09-24T06:49:26;31.67;;;18.38;;
41875;SDS011;27555;50.808;4.402;2022-09-24T06:51:53;29.08;;;15.65;;
41875;SDS011;27555;50.808;4.402;2022-09-24T06:54:19;26.48;;;14.82;;
41875;SDS011;27555;50.808;4.402;2022-09-24T06:56:44;26.02;;;15.02;;
41875;SDS011;27555;50.808;4.402;2022-09-24T06:59:10;27.23;;;16.42;;
41875;SDS011;27555;50.808;4.402;2022-09-24T07:01:37;25.00;;;15.43;;
41875;SDS011;27555;50.808;4.402;2022-09-24T07:04:02;23.88;;;14.60;;
41875;SDS011;27555;50.808;4.402;2022-09-24T07:06:28;26.58;;;16.13;;
41875;SDS011;27555;50.808;4.402;2022-09-24T07:09:14;24.88;;;15.60;;
41875;SDS011;27555;50.808;4.402;2022-09-24T07:11:39;21.50;;;14.15;;
41875;SDS011;27555;50.808;4.402;2022-09-24T07:14:06;24.10;;;15.23;;
41875;SDS011;27555;50.808;4.402;2022-09-24T07:16:31;22.95;;;15.07;;
41875;SDS011;27555;50.808;4.402;2022-09-24T07:18:57;26.40;;;15.57;;
41875;SDS011;27555;50.808;4.402;2022-09-24T07:21:23;25.75;;;14.02;;
41875;SDS011;27555;50.808;4.402;2022-09-24T07:23:48;25.67;;;14.88;;
41875;SDS011;27555;50.808;4.402;2022-09-24T07:26:14;27.20;;;16.33;;
41875;SDS011;27555;50.808;4.402;2022-09-24T07:28:40;21.92;;;13.27;;
41875;SDS011;27555;50.808;4.402;2022-09-24T07:31:06;22.60;;;14.80;;
41875;SDS011;27555;50.808;4.402;2022-09-24T07:33:33;23.90;;;16.15;;
41875;SDS011;27555;50.808;4.402;2022-09-24T07:36:02;25.75;;;15.75;;
41875;SDS011;27555;50.808;4.402;2022-09-24T07:38:31;24.65;;;15.57;;
41875;SDS011;27555;50.808;4.402;2022-09-24T07:40:58;25.52;;;16.13;;
41875;SDS011;27555;50.808;4.402;2022-09-24T07:43:23;25.70;;;14.77;;
41875;SDS011;27555;50.808;4.402;2022-09-24T07:45:49;20.27;;;14.10;;
41875;SDS011;27555;50.808;4.402;2022-09-24T07:48:17;26.70;;;16.35;;
41875;SDS011;27555;50.808;4.402;2022-09-24T07:50:43;30.50;;;15.15;;
41875;SDS011;27555;50.808;4.402;2022-09-24T07:53:12;20.67;;;14.52;;
41875;SDS011;27555;50.808;4.402;2022-09-24T07:55:38;20.77;;;14.00;;
41875;SDS011;27555;50.808;4.402;2022-09-24T07:58:04;22.50;;;14.95;;
41875;SDS011;27555;50.808;4.402;2022-09-24T08:00:31;25.88;;;15.30;;
41875;SDS011;27555;50.808;4.402;2022-09-24T08:02:57;27.08;;;15.63;;
41875;SDS011;27555;50.808;4.402;2022-09-24T08:05:23;26.10;;;14.95;;
41875;SDS011;27555;50.808;4.402;2022-09-24T08:07:50;21.98;;;14.15;;
41875;SDS011;27555;50.808;4.402;2022-09-24T08:10:16;23.52;;;15.00;;
41875;SDS011;27555;50.808;4.402;2022-09-24T08:12:42;28.42;;;16.02;;
41875;SDS011;27555;50.808;4.402;2022-09-24T08:15:08;23.80;;;14.38;;
41875;SDS011;27555;50.808;4.402;2022-09-24T08:17:33;24.45;;;14.55;;
41875;SDS011;27555;50.808;4.402;2022-09-24T08:19:59;23.38;;;15.23;;
41875;SDS011;27555;50.808;4.402;2022-09-24T08:22:25;23.08;;;15.63;;
41875;SDS011;27555;50.808;4.402;2022-09-24T08:24:51;20.00;;;14.10;;
41875;SDS011;27555;50.808;4.402;2022-09-24T08:27:17;22.27;;;14.43;;
41875;SDS011;27555;50.808;4.402;2022-09-24T08:29:47;22.65;;;13.30;;
41875;SDS011;27555;50.808;4.402;2022-09-24T08:32:13;24.02;;;14.45;;
41875;SDS011;27555;50.808;4.402;2022-09-24T08:34:39;28.35;;;15.65;;
41875;SDS011;27555;50.808;4.402;2022-09-24T08:37:05;22.88;;;14.98;;
41875;SDS011;27555;50.808;4.402;2022-09-24T08:39:31;29.90;;;17.08;;
41875;SDS011;27555;50.808;4.402;2022-09-24T08:42:02;25.80;;;15.00;;
41875;SDS011;27555;50.808;4.402;2022-09-24T08:44:39;22.65;;;15.57;;
41875;SDS011;27555;50.808;4.402;2022-09-24T08:47:43;24.30;;;15.20;;
41875;SDS011;27555;50.808;4.402;2022-09-24T08:50:18;24.80;;;14.98;;
41875;SDS011;27555;50.808;4.402;2022-09-24T08:55:30;23.00;;;14.15;;
41875;SDS011;27555;50.808;4.402;2022-09-24T09:00:54;19.77;;;12.90;;
41875;SDS011;27555;50.808;4.402;2022-09-24T09:03:41;21.25;;;13.88;;
41875;SDS011;27555;50.808;4.402;2022-09-24T09:09:25;20.55;;;14.00;;
41875;SDS011;27555;50.808;4.402;2022-09-24T09:12:09;25.45;;;14.23;;
41875;SDS011;27555;50.808;4.402;2022-09-24T09:17:39;23.50;;;13.52;;
41875;SDS011;27555;50.808;4.402;2022-09-24T09:20:40;22.08;;;14.80;;
41875;SDS011;27555;50.808;4.402;2022-09-24T09:23:50;24.05;;;13.15;;
41875;SDS011;27555;50.808;4.402;2022-09-24T09:26:01;28.20;;;15.18;;
41875;SDS011;27555;50.808;4.402;2022-09-24T09:28:31;24.60;;;14.90;;
41875;SDS011;27555;50.808;4.402;2022-09-24T09:36:27;23.73;;;14.70;;
41875;SDS011;27555;50.808;4.402;2022-09-24T09:44:38;19.48;;;12.10;;
41875;SDS011;27555;50.808;4.402;2022-09-24T09:47:10;16.05;;;11.30;;
41875;SDS011;27555;50.808;4.402;2022-09-24T09:49:44;17.88;;;11.10;;
41875;SDS011;27555;50.808;4.402;2022-09-24T09:52:14;22.20;;;11.93;;
41875;SDS011;27555;50.808;4.402;2022-09-24T09:54:44;18.75;;;11.30;;
41875;SDS011;27555;50.808;4.402;2022-09-24T09:57:12;15.75;;;10.98;;
41875;SDS011;27555;50.808;4.402;2022-09-24T09:59:46;21.05;;;11.05;;
41875;SDS011;27555;50.808;4.402;2022-09-24T10:02:34;15.48;;;10.23;;
41875;SDS011;27555;50.808;4.402;2022-09-24T10:05:03;16.77;;;11.60;;
41875;SDS011;27555;50.808;4.402;2022-09-24T10:07:30;19.35;;;11.70;;
41875;SDS011;27555;50.808;4.402;2022-09-24T10:09:57;21.52;;;12.93;;
41875;SDS011;27555;50.808;4.402;2022-09-24T10:12:43;19.02;;;12.30;;
41875;SDS011;27555;50.808;4.402;2022-09-24T10:15:16;17.08;;;12.52;;
41875;SDS011;27555;50.808;4.402;2022-09-24T10:17:43;18.20;;;11.43;;
41875;SDS011;27555;50.808;4.402;2022-09-24T10:22:52;24.85;;;13.30;;
41875;SDS011;27555;50.808;4.402;2022-09-24T10:25:23;20.80;;;11.98;;
41875;SDS011;27555;50.808;4.402;2022-09-24T10:27:52;20.08;;;11.48;;
41875;SDS011;27555;50.808;4.402;2022-09-24T10:30:47;19.27;;;11.63;;
41875;SDS011;27555;50.808;4.402;2022-09-24T10:33:22;22.83;;;11.85;;
41875;SDS011;27555;50.808;4.402;2022-09-24T10:35:49;18.60;;;12.45;;
41875;SDS011;27555;50.808;4.402;2022-09-24T10:40:42;22.27;;;11.90;;
41875;SDS011;27555;50.808;4.402;2022-09-24T10:43:13;19.70;;;10.93;;
41875;SDS011;27555;50.808;4.402;2022-09-24T10:56:06;18.83;;;10.25;;
41875;SDS011;27555;50.808;4.402;2022-09-24T11:04:04;12.10;;;6.78;;
41875;SDS011;27555;50.808;4.402;2022-09-24T11:09:57;11.23;;;7.07;;
41875;SDS011;27555;50.808;4.402;2022-09-24T11:13:01;12.75;;;6.85;;
41875;SDS011;27555;50.808;4.402;2022-09-24T11:34:43;18.98;;;9.10;;
41875;SDS011;27555;50.808;4.402;2022-09-24T11:37:27;20.35;;;9.95;;
41875;SDS011;27555;50.808;4.402;2022-09-24T11:56:30;19.08;;;9.77;;
41875;SDS011;27555;50.808;4.402;2022-09-24T11:59:30;23.10;;;11.80;;
41875;SDS011;27555;50.808;4.402;2022-09-24T12:02:02;20.27;;;11.60;;
41875;SDS011;27555;50.808;4.402;2022-09-24T12:04:53;21.27;;;11.25;;
41875;SDS011;27555;50.808;4.402;2022-09-24T12:07:37;26.23;;;12.13;;
41875;SDS011;27555;50.808;4.402;2022-09-24T12:12:50;21.15;;;12.38;;
41875;SDS011;27555;50.808;4.402;2022-09-24T12:15:26;24.15;;;12.13;;
41875;SDS011;27555;50.808;4.402;2022-09-24T12:18:26;20.50;;;10.82;;
41875;SDS011;27555;50.808;4.402;2022-09-24T12:21:06;21.20;;;11.63;;
41875;SDS011;27555;50.808;4.402;2022-09-24T12:23:42;22.05;;;12.80;;
41875;SDS011;27555;50.808;4.402;2022-09-24T12:26:10;21.60;;;12.30;;
41875;SDS011;27555;50.808;4.402;2022-09-24T12:29:01;22.55;;;12.90;;
41875;SDS011;27555;50.808;4.402;2022-09-24T12:32:13;19.45;;;12.73;;
41875;SDS011;27555;50.808;4.402;2022-09-24T12:35:17;22.92;;;12.50;;
41875;SDS011;27555;50.808;4.402;2022-09-24T12:43:28;24.17;;;13.38;;
41875;SDS011;27555;50.808;4.402;2022-09-24T12:46:02;20.20;;;12.95;;
41875;SDS011;27555;50.808;4.402;2022-09-24T12:48:30;20.15;;;12.10;;
41875;SDS011;27555;50.808;4.402;2022-09-24T12:51:00;18.00;;;12.52;;
41875;SDS011;27555;50.808;4.402;2022-09-24T12:53:39;19.15;;;12.52;;
41875;SDS011;27555;50.808;4.402;2022-09-24T12:56:06;22.00;;;11.85;;
41875;SDS011;27555;50.808;4.402;2022-09-24T13:01:40;17.30;;;11.35;;
41875;SDS011;27555;50.808;4.402;2022-09-24T13:04:03;23.35;;;11.68;;
41875;SDS011;27555;50.808;4.402;2022-09-24T13:06:39;18.35;;;11.60;;
41875;SDS011;27555;50.808;4.402;2022-09-24T13:11:59;26.88;;;12.32;;
41875;SDS011;27555;50.808;4.402;2022-09-24T13:14:31;17.70;;;11.88;;
41875;SDS011;27555;50.808;4.402;2022-09-24T13:16:58;19.02;;;11.43;;
41875;SDS011;27555;50.808;4.402;2022-09-24T13:19:37;20.77;;;12.90;;
41875;SDS011;27555;50.808;4.402;2022-09-24T13:22:05;15.70;;;10.45;;
41875;SDS011;27555;50.808;4.402;2022-09-24T13:24:52;14.93;;;10.75;;
41875;SDS011;27555;50.808;4.402;2022-09-24T13:27:38;17.77;;;10.02;;
41875;SDS011;27555;50.808;4.402;2022-09-24T13:32:33;19.17;;;10.35;;
41875;SDS011;27555;50.808;4.402;2022-09-24T13:35:05;18.65;;;10.15;;
41875;SDS011;27555;50.808;4.402;2022-09-24T13:37:38;15.70;;;10.23;;
41875;SDS011;27555;50.808;4.402;2022-09-24T13:40:18;17.17;;;12.25;;
41875;SDS011;27555;50.808;4.402;2022-09-24T13:42:54;14.07;;;10.10;;
41875;SDS011;27555;50.808;4.402;2022-09-24T13:45:27;17.38;;;10.30;;
41875;SDS011;27555;50.808;4.402;2022-09-24T13:47:53;16.75;;;9.65;;
41875;SDS011;27555;50.808;4.402;2022-09-24T13:50:23;13.43;;;9.25;;
41875;SDS011;27555;50.808;4.402;2022-09-24T13:53:02;14.80;;;9.90;;
41875;SDS011;27555;50.808;4.402;2022-09-24T13:58:24;13.77;;;9.55;;
41875;SDS011;27555;50.808;4.402;2022-09-24T14:00:50;15.27;;;10.32;;
41875;SDS011;27555;50.808;4.402;2022-09-24T14:03:18;15.60;;;10.30;;
41875;SDS011;27555;50.808;4.402;2022-09-24T14:05:50;14.90;;;10.88;;
41875;SDS011;27555;50.808;4.402;2022-09-24T14:08:16;15.85;;;11.40;;
41875;SDS011;27555;50.808;4.402;2022-09-24T14:10:45;15.30;;;11.52;;
41875;SDS011;27555;50.808;4.402;2022-09-24T14:13:14;18.20;;;11.48;;
41875;SDS011;27555;50.808;4.402;2022-09-24T14:16:06;16.65;;;11.88;;
41875;SDS011;27555;50.808;4.402;2022-09-24T14:18:34;16.80;;;12.68;;
41875;SDS011;27555;50.808;4.402;2022-09-24T14:21:08;16.02;;;12.38;;
41875;SDS011;27555;50.808;4.402;2022-09-24T14:23:49;16.77;;;12.77;;
41875;SDS011;27555;50.808;4.402;2022-09-24T14:26:37;17.55;;;13.43;;
41875;SDS011;27555;50.808;4.402;2022-09-24T14:29:16;17.52;;;12.63;;
41875;SDS011;27555;50.808;4.402;2022-09-24T14:31:50;17.30;;;14.02;;
41875;SDS011;27555;50.808;4.402;2022-09-24T14:34:23;18.52;;;14.32;;
41875;SDS011;27555;50.808;4.402;2022-09-24T14:36:50;23.23;;;14.47;;
41875;SDS011;27555;50.808;4.402;2022-09-24T14:39:17;21.10;;;13.90;;
41875;SDS011;27555;50.808;4.402;2022-09-24T14:41:49;19.50;;;14.98;;
41875;SDS011;27555;50.808;4.402;2022-09-24T14:44:20;17.33;;;13.57;;
41875;SDS011;27555;50.808;4.402;2022-09-24T14:46:55;18.00;;;15.02;;
41875;SDS011;27555;50.808;4.402;2022-09-24T14:54:19;14.60;;;12.23;;
41875;SDS011;27555;50.808;4.402;2022-09-24T14:56:54;21.15;;;14.88;;
41875;SDS011;27555;50.808;4.402;2022-09-24T14:59:30;21.98;;;14.75;;
41875;SDS011;27555;50.808;4.402;2022-09-24T15:02:03;17.45;;;13.00;;
41875;SDS011;27555;50.808;4.402;2022-09-24T15:04:39;16.85;;;13.00;;
41875;SDS011;27555;50.808;4.402;2022-09-24T15:07:27;20.30;;;12.70;;
41875;SDS011;27555;50.808;4.402;2022-09-24T15:09:56;18.27;;;13.32;;
41875;SDS011;27555;50.808;4.402;2022-09-24T15:12:33;18.73;;;13.75;;
41875;SDS011;27555;50.808;4.402;2022-09-24T15:17:33;23.40;;;17.10;;
41875;SDS011;27555;50.808;4.402;2022-09-24T15:20:00;21.95;;;14.98;;
41875;SDS011;27555;50.808;4.402;2022-09-24T15:22:28;20.60;;;15.05;;
41875;SDS011;27555;50.808;4.402;2022-09-24T15:24:55;17.73;;;14.02;;
41875;SDS011;27555;50.808;4.402;2022-09-24T15:27:23;17.05;;;12.73;;
41875;SDS011;27555;50.808;4.402;2022-09-24T15:29:57;16.25;;;12.68;;
41875;SDS011;27555;50.808;4.402;2022-09-24T15:32:27;14.93;;;11.65;;
41875;SDS011;27555;50.808;4.402;2022-09-24T15:35:05;15.55;;;12.00;;
41875;SDS011;27555;50.808;4.402;2022-09-24T15:37:33;16.92;;;12.98;;
41875;SDS011;27555;50.808;4.402;2022-09-24T15:40:21;14.60;;;12.00;;
41875;SDS011;27555;50.808;4.402;2022-09-24T15:42:49;15.98;;;12.15;;
41875;SDS011;27555;50.808;4.402;2022-09-24T15:45:15;14.93;;;12.13;;
41875;SDS011;27555;50.808;4.402;2022-09-24T15:47:43;17.25;;;13.23;;
41875;SDS011;27555;50.808;4.402;2022-09-24T15:50:09;15.65;;;11.95;;
41875;SDS011;27555;50.808;4.402;2022-09-24T15:52:38;20.73;;;13.82;;
41875;SDS011;27555;50.808;4.402;2022-09-24T15:55:12;18.33;;;12.60;;
41875;SDS011;27555;50.808;4.402;2022-09-24T15:57:40;19.10;;;13.63;;
41875;SDS011;27555;50.808;4.402;2022-09-24T16:00:08;16.20;;;11.65;;
41875;SDS011;27555;50.808;4.402;2022-09-24T16:02:38;15.02;;;12.90;;
41875;SDS011;27555;50.808;4.402;2022-09-24T16:05:10;22.15;;;14.20;;
41875;SDS011;27555;50.808;4.402;2022-09-24T16:07:37;18.45;;;13.27;;
41875;SDS011;27555;50.808;4.402;2022-09-24T16:10:02;16.10;;;11.40;;
41875;SDS011;27555;50.808;4.402;2022-09-24T16:12:28;16.65;;;12.05;;
41875;SDS011;27555;50.808;4.402;2022-09-24T16:14:54;19.92;;;13.65;;
41875;SDS011;27555;50.808;4.402;2022-09-24T16:17:23;17.15;;;12.68;;
41875;SDS011;27555;50.808;4.402;2022-09-24T16:19:49;15.07;;;11.25;;
41875;SDS011;27555;50.808;4.402;2022-09-24T16:22:15;20.30;;;12.57;;
41875;SDS011;27555;50.808;4.402;2022-09-24T16:24:41;18.27;;;12.45;;
41875;SDS011;27555;50.808;4.402;2022-09-24T16:27:06;16.70;;;11.75;;
41875;SDS011;27555;50.808;4.402;2022-09-24T16:29:32;20.40;;;12.80;;
41875;SDS011;27555;50.808;4.402;2022-09-24T16:31:57;16.25;;;11.68;;
41875;SDS011;27555;50.808;4.402;2022-09-24T16:34:23;15.25;;;10.80;;
41875;SDS011;27555;50.808;4.402;2022-09-24T16:36:49;18.60;;;11.52;;
41875;SDS011;27555;50.808;4.402;2022-09-24T16:39:15;15.25;;;10.48;;
41875;SDS011;27555;50.808;4.402;2022-09-24T16:41:40;23.38;;;11.35;;
41875;SDS011;27555;50.808;4.402;2022-09-24T16:44:06;17.45;;;11.00;;
41875;SDS011;27555;50.808;4.402;2022-09-24T16:46:34;19.15;;;11.70;;
41875;SDS011;27555;50.808;4.402;2022-09-24T16:49:00;17.33;;;11.52;;
41875;SDS011;27555;50.808;4.402;2022-09-24T16:51:25;15.57;;;11.40;;
41875;SDS011;27555;50.808;4.402;2022-09-24T16:53:54;16.67;;;11.35;;
41875;SDS011;27555;50.808;4.402;2022-09-24T16:56:20;17.70;;;10.43;;
41875;SDS011;27555;50.808;4.402;2022-09-24T16:58:48;16.92;;;10.90;;